createdAt,value
2022-08-26T00:00:59.693Z,431.00
2022-08-26T00:06:31.518Z,430.00
2022-08-26T00:12:03.137Z,431.00
2022-08-26T00:17:35.137Z,431.00
2022-08-26T00:23:07.168Z,438.00
2022-08-26T00:28:38.981Z,440.00
2022-08-26T00:34:11.425Z,441.00
2022-08-26T00:39:42.960Z,438.00
2022-08-26T00:45:14.515Z,438.00
2022-08-26T00:50:46.375Z,434.00
2022-08-26T00:56:18.230Z,427.00
2022-08-26T01:01:49.922Z,426.00
2022-08-26T01:07:22.207Z,425.00
2022-08-26T01:12:54.402Z,424.00
2022-08-26T01:18:26.305Z,431.00
2022-08-26T01:29:27.538Z,437.00
2022-08-26T01:34:59.125Z,437.00
2022-08-26T01:51:34.535Z,446.00
2022-08-26T01:57:06.265Z,453.00
2022-08-26T02:02:38.196Z,450.00
2022-08-26T02:08:09.843Z,452.00
2022-08-26T02:19:17.102Z,456.00
2022-08-26T02:24:44.603Z,461.00
2022-08-26T02:30:17.208Z,460.00
2022-08-26T02:35:49.167Z,458.00
2022-08-26T02:46:50.969Z,463.00
2022-08-26T02:52:22.762Z,463.00
2022-08-26T02:57:54.257Z,463.00
2022-08-26T03:03:26.289Z,466.00
2022-08-26T03:08:58.238Z,463.00
2022-08-26T03:25:33.428Z,463.00
2022-08-26T03:31:05.355Z,462.00
2022-08-26T03:36:36.940Z,463.00
2022-08-26T03:47:40.850Z,466.00
2022-08-26T03:53:15.026Z,471.00
2022-08-26T03:58:46.830Z,476.00
2022-08-26T04:09:50.037Z,483.00
2022-08-26T04:15:23.544Z,485.00
2022-08-26T04:20:55.364Z,491.00
2022-08-26T04:26:27.003Z,498.00
2022-08-26T04:31:59.416Z,507.00
2022-08-26T04:37:31.126Z,508.00
2022-08-26T04:43:02.987Z,500.00
2022-08-26T04:48:34.968Z,507.00
2022-08-26T04:54:06.877Z,507.00
2022-08-26T04:59:39.542Z,510.00
2022-08-26T05:05:10.939Z,519.00
2022-08-26T05:10:42.763Z,522.00
2022-08-26T05:16:14.432Z,517.00
2022-08-26T05:21:46.139Z,518.00
2022-08-26T05:27:18.095Z,516.00
2022-08-26T05:32:54.799Z,514.00
2022-08-26T05:38:22.239Z,506.00
2022-08-26T05:43:54.166Z,504.00
2022-08-26T05:54:58.042Z,505.00
2022-08-26T06:00:29.936Z,510.00
2022-08-26T06:06:01.739Z,509.00
2022-08-26T06:11:35.365Z,512.00
2022-08-26T06:17:07.347Z,514.00
2022-08-26T06:28:11.387Z,504.00
2022-08-26T06:33:43.835Z,502.00
2022-08-26T06:50:16.842Z,504.00
2022-08-26T06:55:49.050Z,499.00
2022-08-26T07:01:21.038Z,500.00
2022-08-26T07:12:27.955Z,504.00
2022-08-26T07:18:02.577Z,502.00
2022-08-26T07:23:34.898Z,499.00
2022-08-26T07:29:07.088Z,502.00
2022-08-26T07:34:38.952Z,500.00
2022-08-26T07:40:10.904Z,503.00
2022-08-26T07:45:43.108Z,503.00
2022-08-26T07:51:14.854Z,504.00
2022-08-26T07:56:46.640Z,501.00
2022-08-26T08:02:20.366Z,498.00
2022-08-26T08:07:53.561Z,500.00
2022-08-26T08:13:24.120Z,492.00
2022-08-26T08:18:55.399Z,487.00
2022-08-26T08:24:27.111Z,478.00
2022-08-26T08:29:58.837Z,480.00
2022-08-26T08:35:30.750Z,474.00
2022-08-26T08:46:34.230Z,463.00
2022-08-26T08:52:06.220Z,461.00
2022-08-26T08:57:37.756Z,463.00
2022-08-26T09:03:09.795Z,462.00
2022-08-26T09:08:41.551Z,461.00
2022-08-26T09:14:13.412Z,464.00
2022-08-26T09:19:45.330Z,463.00
2022-08-26T09:25:16.879Z,460.00
2022-08-26T09:30:48.715Z,461.00
2022-08-26T09:36:20.611Z,457.00
2022-08-26T09:41:52.762Z,456.00
2022-08-26T09:47:24.741Z,453.00
2022-08-26T09:52:56.536Z,448.00
2022-08-26T09:58:28.292Z,446.00
2022-08-26T10:04:00.397Z,439.00
2022-08-26T10:09:32.390Z,436.00
2022-08-26T10:15:05.862Z,429.00
2022-08-26T10:20:38.068Z,426.00
2022-08-26T10:26:09.663Z,417.00
2022-08-26T10:31:41.451Z,417.00
2022-08-26T10:42:45.314Z,415.00
2022-08-26T10:48:17.355Z,416.00
2022-08-26T10:53:51.383Z,418.00
2022-08-26T11:04:53.045Z,411.00
2022-08-26T11:10:25.019Z,413.00
2022-08-26T11:15:56.780Z,417.00
2022-08-26T11:18:08.810Z,417.00
2022-08-26T11:23:41.646Z,412.00
2022-08-26T11:29:13.639Z,410.00
2022-08-26T11:34:44.403Z,409.00
2022-08-26T11:40:16.193Z,401.00
2022-08-26T11:45:48.164Z,401.00
2022-08-26T11:51:20.415Z,395.00
2022-08-26T11:56:52.270Z,391.00
2022-08-26T12:02:24.234Z,390.00
2022-08-26T12:07:56.048Z,391.00
2022-08-26T12:13:27.964Z,390.00
2022-08-26T12:18:59.566Z,386.00
2022-08-26T12:24:31.209Z,393.00
2022-08-26T12:30:02.968Z,391.00
2022-08-26T12:35:34.304Z,390.00
2022-08-26T12:41:05.701Z,391.00
2022-08-26T12:46:37.472Z,392.00
2022-08-26T12:52:09.319Z,395.00
2022-08-26T12:57:41.147Z,392.00
2022-08-26T13:03:12.969Z,384.00
2022-08-26T13:08:45.352Z,383.00
2022-08-26T13:14:21.254Z,383.00
2022-08-26T13:19:48.798Z,387.00
2022-08-26T13:25:20.672Z,389.00
2022-08-26T13:30:52.492Z,390.00
2022-08-26T13:36:24.300Z,390.00
2022-08-26T13:41:56.295Z,389.00
2022-08-26T13:47:27.977Z,388.00
2022-08-26T13:52:59.543Z,390.00
2022-08-26T13:58:31.358Z,388.00
2022-08-26T14:04:02.699Z,382.00
2022-08-26T14:09:38.403Z,384.00
2022-08-26T14:15:07.226Z,381.00
2022-08-26T14:26:10.375Z,382.00
2022-08-26T14:31:42.013Z,379.00
2022-08-26T14:42:47.885Z,388.00
2022-08-26T14:53:47.761Z,388.00
2022-08-26T14:59:18.946Z,381.00
2022-08-26T15:04:50.316Z,383.00
2022-08-26T15:10:21.787Z,386.00
2022-08-26T15:15:53.620Z,386.00
2022-08-26T15:21:25.339Z,386.00
2022-08-26T15:26:56.742Z,384.00
2022-08-26T15:32:28.650Z,389.00
2022-08-26T15:38:00.427Z,388.00
2022-08-26T15:49:03.524Z,381.00
2022-08-26T15:54:35.761Z,378.00
2022-08-26T16:00:07.415Z,382.00
2022-08-26T16:05:39.246Z,383.00
2022-08-26T16:11:10.832Z,380.00
2022-08-26T16:16:44.121Z,389.00
2022-08-26T16:22:16.107Z,388.00
2022-08-26T16:27:47.494Z,383.00
2022-08-26T16:33:29.114Z,377.00
2022-08-26T16:38:50.723Z,382.00
2022-08-26T16:49:53.860Z,377.00
2022-08-26T16:55:25.359Z,379.00
2022-08-26T17:00:57.120Z,379.00
2022-08-26T17:06:28.998Z,386.00
2022-08-26T17:12:00.912Z,380.00
2022-08-26T17:17:32.498Z,381.00
2022-08-26T17:23:04.248Z,379.00
2022-08-26T17:28:35.392Z,377.00
2022-08-26T17:34:06.822Z,385.00
2022-08-26T17:39:38.219Z,384.00
2022-08-26T17:45:09.861Z,386.00
2022-08-26T17:50:41.548Z,388.00
2022-08-26T17:56:13.282Z,390.00
2022-08-26T18:01:45.115Z,390.00
2022-08-26T18:07:16.945Z,393.00
2022-08-26T18:12:48.828Z,387.00
2022-08-26T18:19:52.435Z,0.00
2022-08-26T18:25:24.291Z,389.00
2022-08-26T18:30:57.414Z,386.00
2022-08-26T18:36:29.480Z,379.00
2022-08-26T19:18:31.864Z,367.00
2022-08-26T19:29:39.088Z,366.00
2022-08-26T19:35:11.976Z,369.00
2022-08-26T19:40:44.281Z,362.00
2022-08-26T19:46:16.342Z,363.00
2022-08-26T19:51:48.167Z,367.00
2022-08-26T19:57:20.010Z,364.00
2022-08-26T20:02:51.618Z,366.00
2022-08-26T20:08:23.667Z,369.00
2022-08-26T20:13:55.430Z,367.00
2022-08-26T20:19:27.296Z,367.00
2022-08-26T20:24:58.771Z,365.00
2022-08-26T20:30:30.638Z,370.00
2022-08-26T20:36:02.611Z,369.00
2022-08-26T20:41:33.960Z,372.00
2022-08-26T20:47:05.506Z,372.00
2022-08-26T20:52:37.291Z,373.00
2022-08-26T20:58:09.146Z,368.00
2022-08-26T21:03:40.878Z,366.00
2022-08-26T21:09:12.598Z,372.00
2022-08-26T21:14:48.953Z,373.00
2022-08-26T21:20:16.658Z,377.00
2022-08-26T21:25:48.792Z,374.00
2022-08-26T21:31:20.648Z,382.00
2022-08-26T21:36:52.229Z,388.00
2022-08-26T21:42:24.067Z,391.00
2022-08-26T21:47:55.768Z,391.00
2022-08-26T21:53:27.750Z,388.00
2022-08-26T21:58:59.496Z,393.00
2022-08-26T22:04:31.334Z,391.00
2022-08-26T22:10:03.291Z,393.00
2022-08-26T22:15:35.324Z,394.00
2022-08-26T22:21:07.441Z,396.00
2022-08-26T22:26:39.404Z,399.00
2022-08-26T22:32:11.329Z,398.00
2022-08-26T22:37:43.185Z,398.00
2022-08-26T22:43:15.009Z,400.00
2022-08-26T22:48:46.859Z,402.00
2022-08-26T22:54:18.818Z,403.00
2022-08-26T22:59:50.619Z,401.00
2022-08-26T23:10:53.787Z,400.00
2022-08-26T23:16:25.749Z,399.00
2022-08-26T23:21:57.888Z,396.00
2022-08-26T23:26:33.347Z,396.00
2022-08-26T23:32:04.082Z,393.00
2022-08-26T23:37:34.959Z,392.00
2022-08-26T23:43:06.948Z,392.00
2022-08-26T23:48:38.712Z,385.00
2022-08-26T23:54:10.526Z,388.00
2022-08-26T23:59:42.118Z,390.00
